sensor_id;sensor_type;location;lat;lon;timestamp;pressure;altitude;pressure_sealevel;temperature;humidity
69402;BME280;56589;51.992;5.924;2022-08-25T00:01:13;101186.34;;;23.51;51.25
69402;BME280;56589;51.992;5.924;2022-08-25T00:03:41;101186.16;;;23.53;50.80
69402;BME280;56589;51.992;5.924;2022-08-25T00:06:08;101186.16;;;23.53;50.91
69402;BME280;56589;51.992;5.924;2022-08-25T00:08:36;101181.63;;;23.53;50.34
69402;BME280;56589;51.992;5.924;2022-08-25T00:11:07;101184.31;;;23.53;50.22
69402;BME280;56589;51.992;5.924;2022-08-25T00:13:34;101186.97;;;23.53;50.49
69402;BME280;56589;51.992;5.924;2022-08-25T00:15:59;101182.47;;;23.54;50.32
69402;BME280;56589;51.992;5.924;2022-08-25T00:18:26;101183.47;;;23.53;50.18
69402;BME280;56589;51.992;5.924;2022-08-25T00:20:51;101184.13;;;23.55;49.93
69402;BME280;56589;51.992;5.924;2022-08-25T00:23:18;101182.63;;;23.52;49.94
69402;BME280;56589;51.992;5.924;2022-08-25T00:25:44;101183.84;;;23.50;49.92
69402;BME280;56589;51.992;5.924;2022-08-25T00:28:12;101189.34;;;23.48;49.56
69402;BME280;56589;51.992;5.924;2022-08-25T00:30:38;101191.38;;;23.46;49.97
69402;BME280;56589;51.992;5.924;2022-08-25T00:33:04;101181.00;;;23.43;49.97
69402;BME280;56589;51.992;5.924;2022-08-25T00:35:29;101185.50;;;23.43;49.47
69402;BME280;56589;51.992;5.924;2022-08-25T00:37:55;101186.69;;;23.40;50.06
69402;BME280;56589;51.992;5.924;2022-08-25T00:40:21;101184.19;;;23.38;49.79
69402;BME280;56589;51.992;5.924;2022-08-25T00:42:48;101187.53;;;23.32;49.64
69402;BME280;56589;51.992;5.924;2022-08-25T00:45:17;101192.22;;;23.30;49.50
69402;BME280;56589;51.992;5.924;2022-08-25T00:47:43;101190.72;;;23.28;49.79
69402;BME280;56589;51.992;5.924;2022-08-25T00:50:10;101189.22;;;23.25;49.69
69402;BME280;56589;51.992;5.924;2022-08-25T00:52:41;101187.72;;;23.23;49.54
69402;BME280;56589;51.992;5.924;2022-08-25T00:55:13;101194.44;;;23.19;49.66
69402;BME280;56589;51.992;5.924;2022-08-25T00:57:47;101185.91;;;23.15;49.85
69402;BME280;56589;51.992;5.924;2022-08-25T01:00:25;101181.03;;;23.10;49.98
69402;BME280;56589;51.992;5.924;2022-08-25T01:02:53;101181.41;;;23.07;49.56
69402;BME280;56589;51.992;5.924;2022-08-25T01:05:19;101190.44;;;23.06;49.52
69402;BME280;56589;51.992;5.924;2022-08-25T01:07:45;101190.94;;;23.02;49.75
69402;BME280;56589;51.992;5.924;2022-08-25T01:10:12;101187.75;;;22.98;50.00
69402;BME280;56589;51.992;5.924;2022-08-25T01:12:39;101182.75;;;22.95;49.77
69402;BME280;56589;51.992;5.924;2022-08-25T01:15:10;101183.09;;;22.92;49.52
69402;BME280;56589;51.992;5.924;2022-08-25T01:17:45;101182.59;;;22.89;49.84
69402;BME280;56589;51.992;5.924;2022-08-25T01:20:14;101183.94;;;22.84;49.67
69402;BME280;56589;51.992;5.924;2022-08-25T01:22:44;101187.09;;;22.80;49.44
69402;BME280;56589;51.992;5.924;2022-08-25T01:25:21;101186.44;;;22.78;49.70
69402;BME280;56589;51.992;5.924;2022-08-25T01:27:56;101184.09;;;22.75;49.83
69402;BME280;56589;51.992;5.924;2022-08-25T01:30:22;101187.78;;;22.74;50.03
69402;BME280;56589;51.992;5.924;2022-08-25T01:32:49;101179.94;;;22.72;49.76
69402;BME280;56589;51.992;5.924;2022-08-25T01:35:15;101188.13;;;22.71;49.69
69402;BME280;56589;51.992;5.924;2022-08-25T01:37:44;101181.44;;;22.67;49.57
69402;BME280;56589;51.992;5.924;2022-08-25T01:40:11;101179.09;;;22.64;49.34
69402;BME280;56589;51.992;5.924;2022-08-25T01:42:46;101183.75;;;22.62;49.60
69402;BME280;56589;51.992;5.924;2022-08-25T01:45:18;101182.91;;;22.61;49.51
69402;BME280;56589;51.992;5.924;2022-08-25T01:47:44;101179.75;;;22.57;49.34
69402;BME280;56589;51.992;5.924;2022-08-25T01:50:10;101179.41;;;22.52;49.49
69402;BME280;56589;51.992;5.924;2022-08-25T01:52:48;101184.06;;;22.50;49.51
69402;BME280;56589;51.992;5.924;2022-08-25T01:55:18;101178.22;;;22.47;49.38
69402;BME280;56589;51.992;5.924;2022-08-25T01:57:44;101171.19;;;22.46;49.56
69402;BME280;56589;51.992;5.924;2022-08-25T02:00:12;101183.56;;;22.47;49.72
69402;BME280;56589;51.992;5.924;2022-08-25T02:02:40;101182.75;;;22.46;49.91
69402;BME280;56589;51.992;5.924;2022-08-25T02:05:07;101180.91;;;22.47;49.61
69402;BME280;56589;51.992;5.924;2022-08-25T02:07:34;101191.44;;;22.48;49.70
69402;BME280;56589;51.992;5.924;2022-08-25T02:10:04;101183.56;;;22.47;49.34
69402;BME280;56589;51.992;5.924;2022-08-25T02:12:32;101179.88;;;22.48;49.40
69402;BME280;56589;51.992;5.924;2022-08-25T02:14:59;101175.38;;;22.48;49.24
69402;BME280;56589;51.992;5.924;2022-08-25T02:17:25;101173.69;;;22.47;49.34
69402;BME280;56589;51.992;5.924;2022-08-25T02:19:50;101177.38;;;22.46;49.04
69402;BME280;56589;51.992;5.924;2022-08-25T02:22:16;101181.72;;;22.47;49.28
69402;BME280;56589;51.992;5.924;2022-08-25T02:24:42;101186.06;;;22.48;49.20
69402;BME280;56589;51.992;5.924;2022-08-25T02:27:10;101181.38;;;22.50;49.28
69402;BME280;56589;51.992;5.924;2022-08-25T02:29:36;101181.06;;;22.53;48.87
69402;BME280;56589;51.992;5.924;2022-08-25T02:32:03;101176.06;;;22.58;48.50
69402;BME280;56589;51.992;5.924;2022-08-25T02:34:29;101176.44;;;22.64;48.33
69402;BME280;56589;51.992;5.924;2022-08-25T02:36:54;101178.56;;;22.68;47.81
69402;BME280;56589;51.992;5.924;2022-08-25T02:39:20;101179.75;;;22.74;47.62
69402;BME280;56589;51.992;5.924;2022-08-25T02:41:46;101179.44;;;22.77;47.75
69402;BME280;56589;51.992;5.924;2022-08-25T02:44:14;101172.72;;;22.81;47.75
69402;BME280;56589;51.992;5.924;2022-08-25T02:46:40;101176.72;;;22.85;47.31
69402;BME280;56589;51.992;5.924;2022-08-25T02:49:06;101174.72;;;22.87;46.96
69402;BME280;56589;51.992;5.924;2022-08-25T02:51:33;101173.88;;;22.86;46.88
69402;BME280;56589;51.992;5.924;2022-08-25T02:54:00;101170.88;;;22.90;46.80
69402;BME280;56589;51.992;5.924;2022-08-25T02:56:28;101167.50;;;22.88;46.65
69402;BME280;56589;51.992;5.924;2022-08-25T02:58:54;101164.19;;;22.85;46.91
69402;BME280;56589;51.992;5.924;2022-08-25T03:01:23;101163.69;;;22.82;46.61
69402;BME280;56589;51.992;5.924;2022-08-25T03:03:49;101158.84;;;22.77;46.71
69402;BME280;56589;51.992;5.924;2022-08-25T03:06:18;101160.84;;;22.75;46.68
69402;BME280;56589;51.992;5.924;2022-08-25T03:08:45;101159.84;;;22.68;46.98
69402;BME280;56589;51.992;5.924;2022-08-25T03:11:11;101160.19;;;22.65;47.22
69402;BME280;56589;51.992;5.924;2022-08-25T03:13:37;101161.50;;;22.61;47.10
69402;BME280;56589;51.992;5.924;2022-08-25T03:16:06;101152.28;;;22.55;47.10
69402;BME280;56589;51.992;5.924;2022-08-25T03:18:36;101154.63;;;22.50;47.18
69402;BME280;56589;51.992;5.924;2022-08-25T03:21:03;101150.63;;;22.46;46.99
69402;BME280;56589;51.992;5.924;2022-08-25T03:23:28;101155.63;;;22.41;47.28
69402;BME280;56589;51.992;5.924;2022-08-25T03:25:54;101145.59;;;22.35;47.61
69402;BME280;56589;51.992;5.924;2022-08-25T03:28:21;101147.75;;;22.31;47.25
69402;BME280;56589;51.992;5.924;2022-08-25T03:30:46;101140.25;;;22.27;47.34
69402;BME280;56589;51.992;5.924;2022-08-25T03:33:12;101144.25;;;22.23;47.49
69402;BME280;56589;51.992;5.924;2022-08-25T03:35:41;101139.56;;;22.17;47.45
69402;BME280;56589;51.992;5.924;2022-08-25T03:38:06;101140.88;;;22.13;48.09
69402;BME280;56589;51.992;5.924;2022-08-25T03:40:32;101143.91;;;22.10;48.20
69402;BME280;56589;51.992;5.924;2022-08-25T03:42:58;101128.16;;;22.06;47.74
69402;BME280;56589;51.992;5.924;2022-08-25T03:45:24;101137.53;;;22.02;48.09
69402;BME280;56589;51.992;5.924;2022-08-25T03:47:52;101136.00;;;22.00;48.25
69402;BME280;56589;51.992;5.924;2022-08-25T03:50:19;101129.00;;;21.99;47.88
69402;BME280;56589;51.992;5.924;2022-08-25T03:52:53;101132.16;;;21.94;48.30
69402;BME280;56589;51.992;5.924;2022-08-25T03:55:22;101123.78;;;21.89;48.73
69402;BME280;56589;51.992;5.924;2022-08-25T03:57:49;101122.59;;;21.84;48.23
69402;BME280;56589;51.992;5.924;2022-08-25T04:00:16;101115.91;;;21.79;48.94
69402;BME280;56589;51.992;5.924;2022-08-25T04:02:42;101119.22;;;21.73;48.78
69402;BME280;56589;51.992;5.924;2022-08-25T04:05:09;101115.19;;;21.69;48.60
69402;BME280;56589;51.992;5.924;2022-08-25T04:07:35;101114.84;;;21.64;48.76
69402;BME280;56589;51.992;5.924;2022-08-25T04:10:04;101119.00;;;21.59;48.86
69402;BME280;56589;51.992;5.924;2022-08-25T04:12:30;101115.16;;;21.53;49.39
69402;BME280;56589;51.992;5.924;2022-08-25T04:14:56;101110.97;;;21.50;49.20
69402;BME280;56589;51.992;5.924;2022-08-25T04:17:22;101116.78;;;21.46;49.67
69402;BME280;56589;51.992;5.924;2022-08-25T04:19:48;101112.06;;;21.40;49.26
69402;BME280;56589;51.992;5.924;2022-08-25T04:22:14;101110.56;;;21.37;49.71
69402;BME280;56589;51.992;5.924;2022-08-25T04:24:39;101114.72;;;21.32;49.78
69402;BME280;56589;51.992;5.924;2022-08-25T04:27:08;101108.03;;;21.27;50.02
69402;BME280;56589;51.992;5.924;2022-08-25T04:29:33;101112.03;;;21.23;49.55
69402;BME280;56589;51.992;5.924;2022-08-25T04:31:59;101107.16;;;21.19;49.85
69402;BME280;56589;51.992;5.924;2022-08-25T04:34:26;101105.66;;;21.16;49.95
69402;BME280;56589;51.992;5.924;2022-08-25T04:36:52;101097.13;;;21.13;49.84
69402;BME280;56589;51.992;5.924;2022-08-25T04:39:19;101102.78;;;21.10;49.95
69402;BME280;56589;51.992;5.924;2022-08-25T04:41:45;101091.72;;;21.05;49.99
69402;BME280;56589;51.992;5.924;2022-08-25T04:44:14;101093.69;;;21.03;50.25
69402;BME280;56589;51.992;5.924;2022-08-25T04:46:40;101100.34;;;20.98;50.31
69402;BME280;56589;51.992;5.924;2022-08-25T04:49:07;101100.66;;;20.95;50.47
69402;BME280;56589;51.992;5.924;2022-08-25T04:51:36;101103.50;;;20.94;50.50
69402;BME280;56589;51.992;5.924;2022-08-25T04:54:07;101100.16;;;20.92;50.80
69402;BME280;56589;51.992;5.924;2022-08-25T04:56:35;101100.97;;;20.92;50.60
69402;BME280;56589;51.992;5.924;2022-08-25T04:59:03;101100.16;;;20.92;50.63
69402;BME280;56589;51.992;5.924;2022-08-25T05:01:33;101108.28;;;20.90;50.38
69402;BME280;56589;51.992;5.924;2022-08-25T05:04:02;101103.78;;;20.91;50.80
69402;BME280;56589;51.992;5.924;2022-08-25T05:06:30;101101.13;;;20.91;50.85
69402;BME280;56589;51.992;5.924;2022-08-25T05:08:57;101106.47;;;20.91;50.90
69402;BME280;56589;51.992;5.924;2022-08-25T05:11:24;101103.78;;;20.91;50.50
69402;BME280;56589;51.992;5.924;2022-08-25T05:13:53;101104.78;;;20.90;50.67
69402;BME280;56589;51.992;5.924;2022-08-25T05:16:21;101101.13;;;20.91;50.78
69402;BME280;56589;51.992;5.924;2022-08-25T05:18:51;101101.13;;;20.91;51.01
69402;BME280;56589;51.992;5.924;2022-08-25T05:21:22;101103.78;;;20.91;50.94
69402;BME280;56589;51.992;5.924;2022-08-25T05:23:54;101109.00;;;20.92;50.78
69402;BME280;56589;51.992;5.924;2022-08-25T05:26:22;101108.81;;;20.94;50.69
69402;BME280;56589;51.992;5.924;2022-08-25T05:28:50;101111.34;;;20.95;50.45
69402;BME280;56589;51.992;5.924;2022-08-25T05:31:18;101109.19;;;20.99;50.85
69402;BME280;56589;51.992;5.924;2022-08-25T05:33:45;101115.19;;;21.01;50.61
69402;BME280;56589;51.992;5.924;2022-08-25T05:36:15;101100.72;;;21.04;50.61
69402;BME280;56589;51.992;5.924;2022-08-25T05:38:42;101108.56;;;21.05;50.32
69402;BME280;56589;51.992;5.924;2022-08-25T05:41:11;101108.41;;;21.07;50.72
69402;BME280;56589;51.992;5.924;2022-08-25T05:43:40;101109.06;;;21.09;50.62
69402;BME280;56589;51.992;5.924;2022-08-25T05:46:07;101106.97;;;21.12;50.43
69402;BME280;56589;51.992;5.924;2022-08-25T05:48:35;101115.84;;;21.21;50.50
69402;BME280;56589;51.992;5.924;2022-08-25T05:51:03;101122.03;;;21.64;50.41
69402;BME280;56589;51.992;5.924;2022-08-25T05:53:33;101123.53;;;22.33;50.03
69402;BME280;56589;51.992;5.924;2022-08-25T05:56:00;101134.19;;;23.06;48.67
69402;BME280;56589;51.992;5.924;2022-08-25T05:58:27;101136.31;;;23.66;47.14
69402;BME280;56589;51.992;5.924;2022-08-25T06:00:54;101132.34;;;24.16;46.31
69402;BME280;56589;51.992;5.924;2022-08-25T06:03:22;101136.78;;;24.70;45.40
69402;BME280;56589;51.992;5.924;2022-08-25T06:05:48;101133.06;;;25.23;44.53
69402;BME280;56589;51.992;5.924;2022-08-25T06:08:14;101142.69;;;25.77;43.35
69402;BME280;56589;51.992;5.924;2022-08-25T06:10:42;101142.16;;;26.24;42.45
69402;BME280;56589;51.992;5.924;2022-08-25T06:13:08;101153.38;;;26.49;41.59
69402;BME280;56589;51.992;5.924;2022-08-25T06:15:34;101137.00;;;26.72;41.15
69402;BME280;56589;51.992;5.924;2022-08-25T06:18:00;101140.69;;;26.93;40.80
69402;BME280;56589;51.992;5.924;2022-08-25T06:20:27;101134.44;;;27.20;40.23
69402;BME280;56589;51.992;5.924;2022-08-25T06:22:55;101136.50;;;27.59;39.65
69402;BME280;56589;51.992;5.924;2022-08-25T06:25:24;101147.25;;;28.01;38.83
69402;BME280;56589;51.992;5.924;2022-08-25T06:27:53;101148.31;;;28.20;38.46
69402;BME280;56589;51.992;5.924;2022-08-25T06:30:21;101147.13;;;28.35;37.64
69402;BME280;56589;51.992;5.924;2022-08-25T06:32:48;101147.72;;;28.44;37.54
69402;BME280;56589;51.992;5.924;2022-08-25T06:35:16;101152.97;;;28.72;37.39
69402;BME280;56589;51.992;5.924;2022-08-25T06:37:44;101147.94;;;29.02;36.38
69402;BME280;56589;51.992;5.924;2022-08-25T06:40:11;101144.91;;;29.43;35.81
69402;BME280;56589;51.992;5.924;2022-08-25T06:42:38;101141.06;;;29.77;35.77
69402;BME280;56589;51.992;5.924;2022-08-25T06:45:08;101131.91;;;30.10;35.30
69402;BME280;56589;51.992;5.924;2022-08-25T06:47:34;101142.31;;;30.45;34.24
69402;BME280;56589;51.992;5.924;2022-08-25T06:50:00;101139.00;;;30.68;34.25
69402;BME280;56589;51.992;5.924;2022-08-25T06:52:26;101144.53;;;30.98;33.84
69402;BME280;56589;51.992;5.924;2022-08-25T06:54:51;101144.88;;;31.26;33.52
69402;BME280;56589;51.992;5.924;2022-08-25T06:57:17;101142.53;;;31.30;32.99
69402;BME280;56589;51.992;5.924;2022-08-25T06:59:43;101143.88;;;31.02;32.65
69402;BME280;56589;51.992;5.924;2022-08-25T07:02:12;101141.84;;;30.48;33.01
69402;BME280;56589;51.992;5.924;2022-08-25T07:04:37;101143.13;;;29.82;33.34
69402;BME280;56589;51.992;5.924;2022-08-25T07:07:03;101151.03;;;29.19;33.82
69402;BME280;56589;51.992;5.924;2022-08-25T07:09:30;101146.72;;;28.58;34.76
69402;BME280;56589;51.992;5.924;2022-08-25T07:11:55;101138.34;;;28.07;35.61
69402;BME280;56589;51.992;5.924;2022-08-25T07:14:21;101135.09;;;27.70;35.94
69402;BME280;56589;51.992;5.924;2022-08-25T07:16:47;101127.28;;;27.41;36.04
69402;BME280;56589;51.992;5.924;2022-08-25T07:19:16;101131.25;;;27.10;36.66
69402;BME280;56589;51.992;5.924;2022-08-25T07:21:42;101130.94;;;26.92;37.44
69402;BME280;56589;51.992;5.924;2022-08-25T07:24:10;101121.31;;;26.76;37.57
69402;BME280;56589;51.992;5.924;2022-08-25T07:26:39;101125.63;;;26.70;37.74
69402;BME280;56589;51.992;5.924;2022-08-25T07:29:08;101123.88;;;26.63;38.18
69402;BME280;56589;51.992;5.924;2022-08-25T07:31:35;101134.66;;;26.63;37.87
69402;BME280;56589;51.992;5.924;2022-08-25T07:34:01;101124.72;;;26.63;38.13
69402;BME280;56589;51.992;5.924;2022-08-25T07:36:30;101129.38;;;26.76;38.31
69402;BME280;56589;51.992;5.924;2022-08-25T07:38:56;101127.78;;;26.81;37.91
69402;BME280;56589;51.992;5.924;2022-08-25T07:41:23;101132.97;;;26.83;38.12
69402;BME280;56589;51.992;5.924;2022-08-25T07:43:49;101137.31;;;26.84;37.84
69402;BME280;56589;51.992;5.924;2022-08-25T07:46:15;101138.16;;;26.84;38.12
69402;BME280;56589;51.992;5.924;2022-08-25T07:48:41;101132.13;;;26.82;38.29
69402;BME280;56589;51.992;5.924;2022-08-25T07:51:08;101130.69;;;26.87;38.16
69402;BME280;56589;51.992;5.924;2022-08-25T07:53:38;101134.47;;;26.92;37.74
69402;BME280;56589;51.992;5.924;2022-08-25T07:56:08;101135.53;;;26.98;38.53
69402;BME280;56589;51.992;5.924;2022-08-25T07:58:35;101133.31;;;27.08;37.77
69402;BME280;56589;51.992;5.924;2022-08-25T08:01:01;101138.31;;;27.11;38.04
69402;BME280;56589;51.992;5.924;2022-08-25T08:03:28;101128.41;;;27.18;38.06
69402;BME280;56589;51.992;5.924;2022-08-25T08:05:53;101127.41;;;27.26;38.24
69402;BME280;56589;51.992;5.924;2022-08-25T08:08:19;101131.56;;;27.28;37.40
69402;BME280;56589;51.992;5.924;2022-08-25T08:10:47;101122.84;;;27.26;37.68
69402;BME280;56589;51.992;5.924;2022-08-25T08:13:13;101126.81;;;27.30;38.02
69402;BME280;56589;51.992;5.924;2022-08-25T08:15:42;101123.75;;;27.33;37.32
69402;BME280;56589;51.992;5.924;2022-08-25T08:18:08;101119.56;;;27.31;37.71
69402;BME280;56589;51.992;5.924;2022-08-25T08:20:34;101116.88;;;27.31;38.09
69402;BME280;56589;51.992;5.924;2022-08-25T08:23:00;101111.47;;;27.31;38.08
69402;BME280;56589;51.992;5.924;2022-08-25T08:25:26;101114.22;;;27.37;38.11
69402;BME280;56589;51.992;5.924;2022-08-25T08:27:55;101111.78;;;27.49;37.82
69402;BME280;56589;51.992;5.924;2022-08-25T08:30:21;101114.28;;;27.51;37.76
69402;BME280;56589;51.992;5.924;2022-08-25T08:32:47;101112.19;;;27.53;37.82
69402;BME280;56589;51.992;5.924;2022-08-25T08:35:13;101114.94;;;27.66;37.59
69402;BME280;56589;51.992;5.924;2022-08-25T08:37:39;101107.91;;;27.78;37.69
69402;BME280;56589;51.992;5.924;2022-08-25T08:40:07;101098.38;;;27.82;37.73
69402;BME280;56589;51.992;5.924;2022-08-25T08:42:44;101102.75;;;27.90;37.93
69402;BME280;56589;51.992;5.924;2022-08-25T08:45:26;101106.31;;;27.97;37.60
69402;BME280;56589;51.992;5.924;2022-08-25T08:51:04;101096.81;;;28.28;36.90
69402;BME280;56589;51.992;5.924;2022-08-25T08:53:42;101089.78;;;28.47;37.31
69402;BME280;56589;51.992;5.924;2022-08-25T08:56:10;101086.66;;;28.63;36.19
69402;BME280;56589;51.992;5.924;2022-08-25T08:58:42;101089.16;;;28.58;36.28
69402;BME280;56589;51.992;5.924;2022-08-25T09:01:16;101095.59;;;28.63;36.42
69402;BME280;56589;51.992;5.924;2022-08-25T09:03:51;101084.97;;;28.68;36.08
69402;BME280;56589;51.992;5.924;2022-08-25T09:06:31;101093.50;;;28.79;35.75
69402;BME280;56589;51.992;5.924;2022-08-25T09:09:04;101088.94;;;28.66;35.75
69402;BME280;56589;51.992;5.924;2022-08-25T09:11:42;101090.81;;;28.65;36.08
69402;BME280;56589;51.992;5.924;2022-08-25T09:14:35;101092.88;;;28.70;35.74
69402;BME280;56589;51.992;5.924;2022-08-25T09:17:17;101098.25;;;28.77;35.81
69402;BME280;56589;51.992;5.924;2022-08-25T09:20:04;101094.91;;;28.88;35.95
69402;BME280;56589;51.992;5.924;2022-08-25T09:22:51;101088.03;;;28.98;35.82
69402;BME280;56589;51.992;5.924;2022-08-25T09:25:32;101092.16;;;29.08;35.99
69402;BME280;56589;51.992;5.924;2022-08-25T09:28:08;101081.75;;;29.18;35.87
69402;BME280;56589;51.992;5.924;2022-08-25T09:30:44;101089.63;;;29.33;35.08
69402;BME280;56589;51.992;5.924;2022-08-25T09:33:23;101084.00;;;29.34;34.89
69402;BME280;56589;51.992;5.924;2022-08-25T09:35:52;101080.47;;;29.34;35.03
69402;BME280;56589;51.992;5.924;2022-08-25T09:38:20;101075.84;;;29.41;34.85
69402;BME280;56589;51.992;5.924;2022-08-25T09:40:49;101084.34;;;29.44;34.69
69402;BME280;56589;51.992;5.924;2022-08-25T09:43:21;101075.78;;;29.54;34.67
69402;BME280;56589;51.992;5.924;2022-08-25T09:45:54;101068.84;;;29.65;35.08
69402;BME280;56589;51.992;5.924;2022-08-25T09:48:27;101072.63;;;29.95;35.40
69402;BME280;56589;51.992;5.924;2022-08-25T09:50:59;101061.63;;;30.65;34.65
69402;BME280;56589;51.992;5.924;2022-08-25T09:53:34;101073.78;;;31.54;33.26
69402;BME280;56589;51.992;5.924;2022-08-25T09:56:02;101071.47;;;32.11;32.37
69402;BME280;56589;51.992;5.924;2022-08-25T09:58:29;101070.09;;;32.67;31.87
69402;BME280;56589;51.992;5.924;2022-08-25T10:01:02;101066.66;;;33.07;31.09
69402;BME280;56589;51.992;5.924;2022-08-25T10:03:52;101067.25;;;33.38;29.55
69402;BME280;56589;51.992;5.924;2022-08-25T10:06:21;101065.41;;;33.55;29.80
69402;BME280;56589;51.992;5.924;2022-08-25T10:08:52;101060.16;;;33.65;29.44
69402;BME280;56589;51.992;5.924;2022-08-25T10:11:32;101065.63;;;33.65;28.60
69402;BME280;56589;51.992;5.924;2022-08-25T10:14:14;101049.06;;;33.55;28.70
69402;BME280;56589;51.992;5.924;2022-08-25T10:16:43;101051.94;;;33.48;28.32
69402;BME280;56589;51.992;5.924;2022-08-25T10:19:13;101058.47;;;33.47;28.44
69402;BME280;56589;51.992;5.924;2022-08-25T10:22:02;101054.84;;;33.30;27.86
69402;BME280;56589;51.992;5.924;2022-08-25T10:24:30;101040.97;;;33.03;28.30
69402;BME280;56589;51.992;5.924;2022-08-25T10:27:00;101048.09;;;32.81;28.46
69402;BME280;56589;51.992;5.924;2022-08-25T10:29:50;101041.38;;;32.60;28.12
69402;BME280;56589;51.992;5.924;2022-08-25T10:32:43;101036.66;;;32.55;28.94
69402;BME280;56589;51.992;5.924;2022-08-25T10:35:29;101030.41;;;32.43;28.20
69402;BME280;56589;51.992;5.924;2022-08-25T10:38:07;101033.63;;;32.40;28.42
69402;BME280;56589;51.992;5.924;2022-08-25T10:40:49;101029.66;;;32.36;28.28
69402;BME280;56589;51.992;5.924;2022-08-25T10:43:29;101020.19;;;32.27;27.91
69402;BME280;56589;51.992;5.924;2022-08-25T10:46:10;101025.44;;;32.28;28.26
69402;BME280;56589;51.992;5.924;2022-08-25T10:48:57;101006.16;;;32.30;27.97
69402;BME280;56589;51.992;5.924;2022-08-25T10:51:38;101011.50;;;32.48;27.86
69402;BME280;56589;51.992;5.924;2022-08-25T10:54:21;101006.28;;;32.58;27.51
69402;BME280;56589;51.992;5.924;2022-08-25T10:57:03;100994.94;;;32.50;27.32
69402;BME280;56589;51.992;5.924;2022-08-25T10:59:56;100991.06;;;32.46;27.44
69402;BME280;56589;51.992;5.924;2022-08-25T11:03:01;100990.31;;;32.50;26.99
69402;BME280;56589;51.992;5.924;2022-08-25T11:05:50;100994.00;;;32.44;27.15
69402;BME280;56589;51.992;5.924;2022-08-25T11:08:31;100980.50;;;32.37;27.04
69402;BME280;56589;51.992;5.924;2022-08-25T11:11:04;100991.63;;;32.36;26.99
69402;BME280;56589;51.992;5.924;2022-08-25T11:13:39;100991.53;;;32.42;27.06
69402;BME280;56589;51.992;5.924;2022-08-25T11:16:14;100986.78;;;32.50;26.78
69402;BME280;56589;51.992;5.924;2022-08-25T11:18:50;100978.38;;;32.51;26.82
69402;BME280;56589;51.992;5.924;2022-08-25T11:21:25;100963.25;;;32.55;26.98
69402;BME280;56589;51.992;5.924;2022-08-25T11:24:09;100967.72;;;32.61;26.11
69402;BME280;56589;51.992;5.924;2022-08-25T11:26:51;100973.72;;;32.75;25.90
69402;BME280;56589;51.992;5.924;2022-08-25T11:29:20;100964.38;;;32.83;25.74
69402;BME280;56589;51.992;5.924;2022-08-25T11:31:53;100968.84;;;32.89;25.84
69402;BME280;56589;51.992;5.924;2022-08-25T11:34:20;100971.22;;;32.97;25.22
69402;BME280;56589;51.992;5.924;2022-08-25T11:36:50;100962.06;;;33.03;24.91
69402;BME280;56589;51.992;5.924;2022-08-25T11:39:31;100956.38;;;33.05;25.13
69402;BME280;56589;51.992;5.924;2022-08-25T11:42:16;100963.47;;;33.06;24.82
69402;BME280;56589;51.992;5.924;2022-08-25T11:44:58;100950.63;;;33.01;24.92
69402;BME280;56589;51.992;5.924;2022-08-25T11:47:43;100951.78;;;33.05;24.76
69402;BME280;56589;51.992;5.924;2022-08-25T11:50:27;100951.47;;;33.18;25.15
69402;BME280;56589;51.992;5.924;2022-08-25T11:52:55;100950.31;;;33.31;24.90
69402;BME280;56589;51.992;5.924;2022-08-25T11:55:44;100949.84;;;33.34;24.60
69402;BME280;56589;51.992;5.924;2022-08-25T11:58:30;100946.56;;;33.32;24.77
69402;BME280;56589;51.992;5.924;2022-08-25T12:01:10;100945.41;;;33.28;24.70
69402;BME280;56589;51.992;5.924;2022-08-25T12:04:11;100940.94;;;33.22;25.01
69402;BME280;56589;51.992;5.924;2022-08-25T12:10:17;100938.63;;;33.31;24.26
69402;BME280;56589;51.992;5.924;2022-08-25T12:13:02;100935.47;;;33.22;24.22
69402;BME280;56589;51.992;5.924;2022-08-25T12:15:33;100934.16;;;33.08;24.61
69402;BME280;56589;51.992;5.924;2022-08-25T12:18:41;100936.16;;;33.01;24.28
69402;BME280;56589;51.992;5.924;2022-08-25T12:21:12;100928.94;;;33.06;25.16
69402;BME280;56589;51.992;5.924;2022-08-25T12:23:40;100925.25;;;33.29;24.90
69402;BME280;56589;51.992;5.924;2022-08-25T12:26:16;100920.69;;;33.46;24.90
69402;BME280;56589;51.992;5.924;2022-08-25T12:29:06;100918.22;;;33.62;24.14
69402;BME280;56589;51.992;5.924;2022-08-25T12:31:51;100926.38;;;33.62;24.34
69402;BME280;56589;51.992;5.924;2022-08-25T12:34:39;100922.25;;;33.59;23.72
69402;BME280;56589;51.992;5.924;2022-08-25T12:37:28;100914.25;;;33.53;24.13
69402;BME280;56589;51.992;5.924;2022-08-25T12:39:57;100916.25;;;33.57;23.98
69402;BME280;56589;51.992;5.924;2022-08-25T12:42:29;100921.91;;;33.56;24.08
69402;BME280;56589;51.992;5.924;2022-08-25T12:51:09;100912.28;;;33.65;24.15
69402;BME280;56589;51.992;5.924;2022-08-25T12:53:45;100919.47;;;33.71;23.76
69402;BME280;56589;51.992;5.924;2022-08-25T12:56:25;100907.47;;;33.72;23.81
69402;BME280;56589;51.992;5.924;2022-08-25T12:59:09;100909.47;;;33.77;24.25
69402;BME280;56589;51.992;5.924;2022-08-25T13:01:54;100902.13;;;33.94;23.62
69402;BME280;56589;51.992;5.924;2022-08-25T13:05:03;100905.69;;;33.94;23.73
69402;BME280;56589;51.992;5.924;2022-08-25T13:07:56;100918.63;;;33.87;23.58
69402;BME280;56589;51.992;5.924;2022-08-25T13:10:42;100906.91;;;33.70;23.75
69402;BME280;56589;51.992;5.924;2022-08-25T13:13:22;100905.69;;;33.44;23.92
69402;BME280;56589;51.992;5.924;2022-08-25T13:16:04;100904.97;;;33.20;24.32
69402;BME280;56589;51.992;5.924;2022-08-25T13:18:35;100900.56;;;33.02;24.39
69402;BME280;56589;51.992;5.924;2022-08-25T13:21:16;100895.28;;;32.96;24.58
69402;BME280;56589;51.992;5.924;2022-08-25T13:23:45;100893.25;;;32.91;24.87